createdAt,value
2022-12-05T00:01:00.244Z,99853.22
2022-12-05T00:03:26.629Z,99854.31
2022-12-05T00:05:52.978Z,99853.06
2022-12-05T00:08:19.422Z,99847.25
2022-12-05T00:10:46.552Z,99857.91
2022-12-05T00:13:12.982Z,99849.72
2022-12-05T00:15:40.856Z,99849.31
2022-12-05T00:18:07.587Z,99852.25
2022-12-05T00:20:34.291Z,99846.69
2022-12-05T00:23:00.922Z,99848.06
2022-12-05T00:25:27.501Z,99858.34
2022-12-05T00:27:53.867Z,99853.72
2022-12-05T00:30:20.225Z,99859.06
2022-12-05T00:32:46.628Z,99863.34
2022-12-05T00:35:12.989Z,99866.88
2022-12-05T00:37:39.545Z,99859.25
2022-12-05T00:40:06.622Z,99863.91
2022-12-05T00:42:33.025Z,99864.72
2022-12-05T00:44:59.478Z,99871.41
2022-12-05T00:47:25.837Z,99868.09
2022-12-05T00:49:52.190Z,99871.41
2022-12-05T00:52:18.549Z,99870.41
2022-12-05T00:54:44.972Z,99870.63
2022-12-05T00:57:11.332Z,99868.34
2022-12-05T00:59:37.768Z,99873.28
2022-12-05T01:02:04.276Z,99866.19
2022-12-05T01:04:30.706Z,99863.50
2022-12-05T01:06:58.753Z,99861.41
2022-12-05T01:09:26.054Z,99866.69
2022-12-05T01:11:52.578Z,99866.25
2022-12-05T01:14:23.284Z,99868.78
2022-12-05T01:16:51.896Z,99862.91
2022-12-05T01:19:27.016Z,99876.34
2022-12-05T01:21:54.095Z,99872.22
2022-12-05T01:24:22.059Z,99865.00
2022-12-05T01:26:49.164Z,99866.69
2022-12-05T01:29:18.428Z,99868.88
2022-12-05T01:31:45.591Z,99867.34
2022-12-05T01:34:13.941Z,99859.81
2022-12-05T01:36:41.338Z,99860.09
2022-12-05T01:39:08.940Z,99870.88
2022-12-05T01:41:40.950Z,99873.38
2022-12-05T01:44:27.286Z,99876.00
2022-12-05T01:46:54.539Z,99878.66
2022-12-05T01:49:26.508Z,99881.53
2022-12-05T01:51:55.965Z,99885.06
2022-12-05T01:54:23.594Z,99888.09
2022-12-05T01:57:05.717Z,99886.44
2022-12-05T01:59:34.100Z,99881.69
2022-12-05T02:02:01.382Z,99882.78
2022-12-05T02:04:27.895Z,99877.91
2022-12-05T02:06:54.829Z,99878.81
2022-12-05T02:09:23.117Z,99868.09
2022-12-05T02:11:59.783Z,99873.94
2022-12-05T02:14:35.301Z,99876.72
2022-12-05T02:17:12.944Z,99878.53
2022-12-05T02:20:10.007Z,99872.56
2022-12-05T02:22:58.595Z,99876.75
2022-12-05T02:25:40.618Z,99881.19
2022-12-05T02:28:28.755Z,99874.81
2022-12-05T02:31:16.413Z,99879.72
2022-12-05T02:33:49.273Z,99882.50
2022-12-05T02:36:44.374Z,99877.50
2022-12-05T02:39:39.336Z,99886.34
2022-12-05T02:42:13.991Z,99880.91
2022-12-05T02:44:56.874Z,99870.63
2022-12-05T02:47:27.210Z,99867.56
2022-12-05T02:49:55.299Z,99866.19
2022-12-05T02:52:24.804Z,99872.28
2022-12-05T02:54:54.604Z,99866.69
2022-12-05T02:57:22.212Z,99860.81
2022-12-05T02:59:48.576Z,99862.28
2022-12-05T03:02:27.439Z,99851.75
2022-12-05T03:04:58.360Z,99854.94
2022-12-05T03:07:27.717Z,99856.34
2022-12-05T03:10:02.555Z,99863.91
2022-12-05T03:12:32.267Z,99870.41
2022-12-05T03:15:02.736Z,99865.97
2022-12-05T03:17:34.395Z,99868.00
2022-12-05T03:20:11.461Z,99866.69
2022-12-05T03:22:43.055Z,99870.63
2022-12-05T03:25:10.744Z,99869.31
2022-12-05T03:28:02.866Z,99862.50
2022-12-05T03:30:30.736Z,99867.22
2022-12-05T03:33:14.017Z,99869.72
2022-12-05T03:36:05.898Z,99874.44
2022-12-05T03:38:43.246Z,99878.72
2022-12-05T03:41:14.488Z,99874.44
2022-12-05T03:43:53.254Z,99883.03
2022-12-05T03:46:37.712Z,99880.53
2022-12-05T03:49:22.822Z,99874.16
2022-12-05T03:52:09.597Z,99884.97
2022-12-05T03:54:42.233Z,99882.22
2022-12-05T03:57:15.540Z,99879.69
2022-12-05T03:59:50.043Z,99881.34
2022-12-05T04:02:28.386Z,99882.59
2022-12-05T04:05:01.663Z,99876.63
2022-12-05T04:07:32.014Z,99876.34
2022-12-05T04:10:03.411Z,99892.31
2022-12-05T04:12:33.479Z,99881.63
2022-12-05T04:15:05.917Z,99886.34
2022-12-05T04:17:53.771Z,99885.94
2022-12-05T04:20:50.951Z,99890.50
2022-12-05T04:23:17.799Z,99892.16
2022-12-05T04:26:14.525Z,99891.34
2022-12-05T04:29:08.166Z,99892.44
2022-12-05T04:31:42.458Z,99894.13
2022-12-05T04:34:13.722Z,99890.50
2022-12-05T04:36:51.458Z,99893.84
2022-12-05T04:39:30.402Z,99897.44
2022-12-05T04:42:04.186Z,99891.59
2022-12-05T04:44:35.096Z,99895.22
2022-12-05T04:47:05.244Z,99897.69
2022-12-05T04:49:35.743Z,99890.50
2022-12-05T04:52:08.913Z,99901.56
2022-12-05T04:54:41.806Z,99897.28
2022-12-05T04:57:15.669Z,99904.66
2022-12-05T04:59:42.131Z,99916.28
2022-12-05T05:02:10.596Z,99908.50
2022-12-05T05:04:42.258Z,99920.72
2022-12-05T05:07:10.630Z,99927.94
2022-12-05T05:09:37.868Z,99925.75
2022-12-05T05:12:04.928Z,99922.25
2022-12-05T05:14:31.441Z,99918.22
2022-12-05T05:16:58.273Z,99919.31
2022-12-05T05:19:24.935Z,99924.56
2022-12-05T05:21:52.197Z,99922.91
2022-12-05T05:24:19.172Z,99922.91
2022-12-05T05:26:46.463Z,99919.31
2022-12-05T05:29:13.741Z,99910.47
2022-12-05T05:31:41.573Z,99922.38
2022-12-05T05:34:09.807Z,99922.97
2022-12-05T05:36:36.930Z,99922.25
2022-12-05T05:39:05.445Z,99921.56
2022-12-05T05:41:34.132Z,99939.19
2022-12-05T05:44:01.538Z,99937.50
2022-12-05T05:46:30.757Z,99938.19
2022-12-05T05:48:57.590Z,99934.06
2022-12-05T05:51:29.246Z,99940.19
2022-12-05T05:53:57.210Z,99939.59
2022-12-05T05:56:23.655Z,99929.44
2022-12-05T05:59:01.611Z,99932.28
2022-12-05T06:01:29.496Z,99937.94
2022-12-05T06:03:56.361Z,99937.94
2022-12-05T06:06:23.793Z,99942.94
2022-12-05T06:08:50.543Z,99943.22
2022-12-05T06:11:26.800Z,99943.22
2022-12-05T06:13:55.982Z,99951.03
2022-12-05T06:16:22.684Z,99952.47
2022-12-05T06:18:49.928Z,99949.59
2022-12-05T06:21:17.697Z,99950.41
2022-12-05T06:23:44.522Z,99947.34
2022-12-05T06:26:13.411Z,99958.50
2022-12-05T06:28:40.439Z,99963.75
2022-12-05T06:31:11.157Z,99972.66
2022-12-05T06:33:37.835Z,99973.16
2022-12-05T06:36:06.360Z,99972.91
2022-12-05T06:38:32.864Z,99978.19
2022-12-05T06:40:59.411Z,99989.25
2022-12-05T06:43:25.756Z,99997.00
2022-12-05T06:45:52.264Z,99998.91
2022-12-05T06:48:18.761Z,100002.53
2022-12-05T06:50:52.890Z,100005.94
2022-12-05T06:53:20.131Z,100003.56
2022-12-05T06:56:00.840Z,100019.75
2022-12-05T06:58:28.220Z,100012.81
2022-12-05T07:01:13.901Z,100007.31
2022-12-05T07:03:40.725Z,100016.72
2022-12-05T07:06:08.425Z,100012.97
2022-12-05T07:08:35.191Z,100011.19
2022-12-05T07:11:02.725Z,100010.38
2022-12-05T07:13:29.325Z,100010.63
2022-12-05T07:15:55.766Z,100014.09
2022-12-05T07:18:22.985Z,100020.34
2022-12-05T07:21:15.282Z,100012.56
2022-12-05T07:23:43.754Z,100015.34
2022-12-05T07:26:13.438Z,100015.34
2022-12-05T07:28:39.840Z,100006.44
2022-12-05T07:31:09.769Z,100011.59
2022-12-05T07:33:37.136Z,100021.16
2022-12-05T07:36:09.881Z,100018.66
2022-12-05T07:38:37.218Z,100014.34
2022-12-05T07:41:13.316Z,100024.13
2022-12-05T07:43:41.271Z,100034.19
2022-12-05T07:46:13.586Z,100027.28
2022-12-05T07:48:40.541Z,100031.56
2022-12-05T07:53:55.918Z,100035.63
2022-12-05T07:56:23.037Z,100035.75
2022-12-05T07:58:50.369Z,100038.22
2022-12-05T08:01:22.136Z,100043.88
2022-12-05T08:03:49.505Z,100045.53
2022-12-05T08:06:21.315Z,100063.91
2022-12-05T08:08:51.302Z,100061.47
2022-12-05T08:11:23.931Z,100054.09
2022-12-05T08:13:50.612Z,100055.75
2022-12-05T08:16:22.537Z,100051.31
2022-12-05T08:18:49.045Z,100057.22
2022-12-05T08:21:18.099Z,100065.75
2022-12-05T08:23:45.868Z,100058.44
2022-12-05T08:26:18.304Z,100067.31
2022-12-05T08:28:45.260Z,100063.13
2022-12-05T08:31:17.819Z,100061.56
2022-12-05T08:33:44.788Z,100072.91
2022-12-05T08:36:13.813Z,100071.31
2022-12-05T08:38:40.272Z,100076.34
2022-12-05T08:41:09.253Z,100080.47
2022-12-05T08:43:36.056Z,100078.16
2022-12-05T08:46:02.975Z,100074.91
2022-12-05T08:48:30.940Z,100063.63
2022-12-05T08:50:58.162Z,100063.38
2022-12-05T08:53:24.933Z,100064.47
2022-12-05T08:55:51.324Z,100066.53
2022-12-05T08:58:17.688Z,100073.84
2022-12-05T09:00:44.049Z,100070.38
2022-12-05T09:03:12.012Z,100075.50
2022-12-05T09:05:38.627Z,100079.44
2022-12-05T09:08:05.256Z,100086.38
2022-12-05T09:10:31.837Z,100091.25
2022-12-05T09:12:58.435Z,100075.91
2022-12-05T09:15:24.941Z,100092.75
2022-12-05T09:17:51.392Z,100092.13
2022-12-05T09:20:18.275Z,100103.16
2022-12-05T09:22:44.834Z,100097.63
2022-12-05T09:25:11.218Z,100111.78
2022-12-05T09:27:37.620Z,100110.50
2022-12-05T09:30:05.665Z,100111.91
2022-12-05T09:32:32.086Z,100117.78
2022-12-05T09:34:58.622Z,100124.38
2022-12-05T09:37:40.524Z,100123.16
2022-12-05T09:40:08.081Z,100112.41
2022-12-05T09:42:55.406Z,100108.88
2022-12-05T09:45:57.761Z,100116.53
2022-12-05T09:48:24.516Z,100107.03
2022-12-05T09:51:00.300Z,100112.91
2022-12-05T09:53:37.509Z,100108.09
2022-12-05T09:56:12.381Z,100113.72
2022-12-05T09:58:42.816Z,100115.63
2022-12-05T10:01:25.774Z,100110.09
2022-12-05T10:04:26.476Z,100121.09
2022-12-05T10:07:34.777Z,100114.59
2022-12-05T10:10:24.831Z,100115.19
2022-12-05T10:13:13.168Z,100117.63
2022-12-05T10:16:03.211Z,100129.19
2022-12-05T10:18:42.916Z,100128.22
2022-12-05T10:21:09.216Z,100129.41
2022-12-05T10:23:57.487Z,100127.44
2022-12-05T10:26:28.813Z,100119.06
2022-12-05T10:29:22.833Z,100118.59
2022-12-05T10:31:51.476Z,100116.91
2022-12-05T10:34:34.193Z,100116.31
2022-12-05T10:37:15.340Z,100109.50
2022-12-05T10:39:42.527Z,100105.78
2022-12-05T10:42:28.122Z,100109.78
2022-12-05T10:45:02.805Z,100107.53
2022-12-05T10:47:30.432Z,100114.22
2022-12-05T10:49:59.929Z,100106.31
2022-12-05T10:52:26.392Z,100112.41
2022-12-05T10:55:03.567Z,100097.41
2022-12-05T10:57:30.493Z,100099.94
2022-12-05T10:59:57.903Z,100108.53
2022-12-05T11:02:28.169Z,100110.47
2022-12-05T11:04:55.739Z,100109.41
2022-12-05T11:07:35.164Z,100105.91
2022-12-05T11:10:21.151Z,100102.16
2022-12-05T11:12:51.812Z,100097.97
2022-12-05T11:15:19.501Z,100094.13
2022-12-05T11:17:46.353Z,100103.03
2022-12-05T11:20:34.762Z,100108.59
2022-12-05T11:23:17.310Z,100105.66
2022-12-05T11:25:43.741Z,100104.69
2022-12-05T11:28:16.121Z,100107.19
2022-12-05T11:30:57.660Z,100098.06
2022-12-05T11:33:25.568Z,100092.47
2022-12-05T11:35:54.250Z,100090.81
2022-12-05T11:38:25.052Z,100102.06
2022-12-05T11:41:00.536Z,100096.31
2022-12-05T11:43:41.855Z,100099.16
2022-12-05T11:46:27.293Z,100107.69
2022-12-05T11:49:11.242Z,100105.22
2022-12-05T11:51:49.127Z,100100.78
2022-12-05T11:54:56.837Z,100098.31
2022-12-05T11:57:14.994Z,100101.34
2022-12-05T12:00:01.719Z,100111.06
2022-12-05T12:02:58.114Z,100097.97
2022-12-05T12:05:57.400Z,100097.75
2022-12-05T12:08:38.982Z,100104.16
2022-12-05T12:11:08.406Z,100096.97
2022-12-05T12:13:49.947Z,100088.34
2022-12-05T12:16:40.925Z,100078.88
2022-12-05T12:19:25.096Z,100086.34
2022-12-05T12:22:10.354Z,100089.13
2022-12-05T12:24:50.092Z,100091.88
2022-12-05T12:27:46.293Z,100087.59
2022-12-05T12:30:20.351Z,100071.63
2022-12-05T12:33:11.303Z,100069.94
2022-12-05T12:36:04.045Z,100063.97
2022-12-05T12:38:45.710Z,100066.22
2022-12-05T12:41:33.111Z,100059.50
2022-12-05T12:44:01.707Z,100066.97
2022-12-05T12:46:52.676Z,100058.09
2022-12-05T12:49:49.988Z,100053.06
2022-12-05T12:52:26.692Z,100054.75
2022-12-05T12:55:03.991Z,100064.16
2022-12-05T12:57:54.864Z,100063.06
2022-12-05T13:00:54.642Z,100068.91
2022-12-05T13:03:51.341Z,100065.59
2022-12-05T13:06:49.995Z,100065.13
2022-12-05T13:09:32.124Z,100068.75
2022-12-05T13:12:05.684Z,100064.78
2022-12-05T13:14:34.663Z,100071.50
2022-12-05T13:17:02.785Z,100071.63
2022-12-05T13:19:45.164Z,100072.47
2022-12-05T13:22:13.455Z,100078.84
2022-12-05T13:24:40.052Z,100072.31
2022-12-05T13:27:15.306Z,100059.13
2022-12-05T13:29:50.792Z,100074.97
2022-12-05T13:32:38.464Z,100087.88
2022-12-05T13:35:07.754Z,100074.13
2022-12-05T13:37:53.920Z,100076.88
2022-12-05T13:40:50.080Z,100096.06
2022-12-05T13:43:20.185Z,100098.25
2022-12-05T13:46:04.295Z,100100.31
2022-12-05T13:48:35.012Z,100094.34
2022-12-05T13:51:20.997Z,100108.38
2022-12-05T13:53:50.953Z,100105.25
2022-12-05T13:56:17.247Z,100105.56
2022-12-05T13:58:51.032Z,100103.63
2022-12-05T14:01:26.837Z,100110.22
2022-12-05T14:04:00.964Z,100107.66
2022-12-05T14:06:39.403Z,100107.66
2022-12-05T14:09:11.814Z,100106.50
2022-12-05T14:11:38.287Z,100098.47
2022-12-05T14:14:05.283Z,100100.63
2022-12-05T14:16:31.764Z,100098.25
2022-12-05T14:19:33.843Z,100097.63
2022-12-05T14:22:17.558Z,100091.41
2022-12-05T14:25:06.115Z,100096.81
2022-12-05T14:27:53.227Z,100098.97
2022-12-05T14:30:25.423Z,100099.31
2022-12-05T14:32:53.945Z,100092.28
2022-12-05T14:35:42.162Z,100095.03
2022-12-05T14:38:19.867Z,100103.06
2022-12-05T14:40:48.012Z,100093.63
2022-12-05T14:43:27.210Z,100097.44
2022-12-05T14:45:53.595Z,100099.16
2022-12-05T14:48:19.956Z,100105.81
2022-12-05T14:50:48.918Z,100098.88
2022-12-05T14:53:15.269Z,100103.41
2022-12-05T14:55:45.892Z,100105.34
2022-12-05T14:58:32.145Z,100101.75
2022-12-05T15:01:03.343Z,100099.81
2022-12-05T15:03:36.665Z,100107.47
2022-12-05T15:06:06.648Z,100111.06
2022-12-05T15:09:14.518Z,100109.19
2022-12-05T15:11:43.472Z,100117.44
2022-12-05T15:14:21.207Z,100123.22
2022-12-05T15:16:50.361Z,100111.34
2022-12-05T15:19:30.752Z,100113.53
2022-12-05T15:22:01.458Z,100112.38
2022-12-05T15:24:27.868Z,100120.41
2022-12-05T15:26:59.310Z,100118.53
2022-12-05T15:29:28.095Z,100124.66
2022-12-05T15:32:03.272Z,100117.13
2022-12-05T15:34:36.841Z,100114.75
2022-12-05T15:37:22.813Z,100122.69
2022-12-05T15:39:59.942Z,100123.16
2022-12-05T15:42:31.660Z,100123.69
2022-12-05T15:45:16.025Z,100127.25
2022-12-05T15:47:42.365Z,100122.97
2022-12-05T15:50:44.219Z,100125.34
2022-12-05T15:53:15.449Z,100124.19
2022-12-05T15:55:55.584Z,100125.84
2022-12-05T15:58:39.658Z,100122.84
2022-12-05T16:01:16.376Z,100132.78
2022-12-05T16:04:14.632Z,100135.91
2022-12-05T16:06:54.785Z,100141.31
2022-12-05T16:09:28.397Z,100132.53
2022-12-05T16:11:57.937Z,100142.38
2022-12-05T16:14:58.274Z,100153.84
2022-12-05T16:17:16.444Z,100144.91
2022-12-05T16:19:43.643Z,100146.91
2022-12-05T16:22:21.254Z,100146.69
2022-12-05T16:24:55.002Z,100153.19
2022-12-05T16:27:25.879Z,100147.94
2022-12-05T16:30:10.974Z,100149.34
2022-12-05T16:32:38.403Z,100135.72
2022-12-05T16:35:30.656Z,100135.84
2022-12-05T16:38:29.683Z,100142.91
2022-12-05T16:40:59.477Z,100144.81
2022-12-05T16:43:43.225Z,100145.78
2022-12-05T16:46:15.345Z,100146.50
2022-12-05T16:48:47.589Z,100154.53
2022-12-05T16:51:14.153Z,100147.94
2022-12-05T16:53:43.067Z,100148.94
2022-12-05T16:56:18.670Z,100155.84
2022-12-05T16:58:45.180Z,100158.63
2022-12-05T17:01:17.939Z,100155.56
2022-12-05T17:03:45.199Z,100150.56
2022-12-05T17:06:12.454Z,100153.19
2022-12-05T17:08:44.677Z,100149.97
2022-12-05T17:11:17.223Z,100153.78
2022-12-05T17:13:45.165Z,100149.84
2022-12-05T17:16:12.075Z,100152.47
2022-12-05T17:18:38.562Z,100153.41
2022-12-05T17:21:09.481Z,100143.50
2022-12-05T17:23:35.843Z,100156.53
2022-12-05T17:26:02.328Z,100158.13
2022-12-05T17:28:28.772Z,100148.69
2022-12-05T17:30:55.196Z,100144.25
2022-12-05T17:33:22.313Z,100153.59
2022-12-05T17:35:48.722Z,100157.44
2022-12-05T17:38:15.147Z,100157.81
2022-12-05T17:40:41.544Z,100155.44
2022-12-05T17:43:13.624Z,100148.59
2022-12-05T17:45:40.038Z,100159.22
2022-12-05T17:48:09.792Z,100152.06
2022-12-05T17:50:36.057Z,100151.81
2022-12-05T17:53:07.215Z,100154.47
2022-12-05T17:55:33.933Z,100158.75
2022-12-05T17:58:00.340Z,100164.03
2022-12-05T18:00:26.948Z,100158.41
2022-12-05T18:02:53.431Z,100164.38
2022-12-05T18:05:27.646Z,100173.47
2022-12-05T18:07:54.076Z,100165.72
2022-12-05T18:10:23.358Z,100169.53
2022-12-05T18:12:50.833Z,100168.94
2022-12-05T18:15:17.598Z,100170.75
2022-12-05T18:17:44.293Z,100179.63
2022-12-05T18:20:13.763Z,100178.88
2022-12-05T18:22:40.543Z,100180.06
2022-12-05T18:25:07.465Z,100169.91
2022-12-05T18:27:34.900Z,100174.69
2022-12-05T18:30:02.105Z,100170.50
2022-12-05T18:32:28.535Z,100176.00
2022-12-05T18:34:55.075Z,100169.69
2022-12-05T18:37:22.308Z,100175.03
2022-12-05T18:39:48.732Z,100178.78
2022-12-05T18:42:15.611Z,100178.53
2022-12-05T18:44:42.240Z,100188.09
2022-12-05T18:47:08.704Z,100188.69
2022-12-05T18:49:35.129Z,100185.38
2022-12-05T18:52:01.591Z,100191.56
2022-12-05T18:54:28.015Z,100202.81
2022-12-05T18:56:54.439Z,100205.56
2022-12-05T18:59:22.039Z,100198.28
2022-12-05T19:01:49.617Z,100207.00
2022-12-05T19:04:18.958Z,100203.53
2022-12-05T19:06:51.386Z,100201.41
2022-12-05T19:09:19.786Z,100206.03
2022-12-05T19:11:48.393Z,100208.81
2022-12-05T19:14:16.672Z,100201.63
2022-12-05T19:16:43.206Z,100204.03
2022-12-05T19:19:13.151Z,100208.22
2022-12-05T19:21:39.582Z,100200.41
2022-12-05T19:24:07.058Z,100199.00
2022-12-05T19:26:34.333Z,100203.53
2022-12-05T19:29:00.975Z,100196.84
2022-12-05T19:31:29.106Z,100197.78
2022-12-05T19:34:00.469Z,100202.22
2022-12-05T19:36:32.824Z,100202.81
2022-12-05T19:38:59.460Z,100199.25
2022-12-05T19:41:28.192Z,100193.72
2022-12-05T19:43:58.649Z,100190.63
2022-12-05T19:46:27.947Z,100190.38
2022-12-05T19:48:56.688Z,100195.63
2022-12-05T19:51:23.889Z,100189.31
2022-12-05T19:53:50.998Z,100189.31
2022-12-05T19:56:22.668Z,100193.00
2022-12-05T19:58:50.233Z,100186.19
2022-12-05T20:01:25.288Z,100196.63
2022-12-05T20:03:55.023Z,100186.09
2022-12-05T20:06:22.060Z,100179.38
2022-12-05T20:08:51.189Z,100189.66
2022-12-05T20:11:20.675Z,100191.47
2022-12-05T20:13:48.385Z,100185.38
2022-12-05T20:16:16.839Z,100198.41
2022-12-05T20:18:43.321Z,100198.75
2022-12-05T20:21:12.374Z,100191.09
2022-12-05T20:23:38.880Z,100191.81
2022-12-05T20:26:17.018Z,100198.28
2022-12-05T20:28:44.375Z,100199.47
2022-12-05T20:31:16.591Z,100204.50
2022-12-05T20:33:43.659Z,100199.59
2022-12-05T20:36:16.956Z,100199.59
2022-12-05T20:38:44.126Z,100198.63
2022-12-05T20:41:15.387Z,100188.72
2022-12-05T20:43:43.179Z,100188.22
2022-12-05T20:46:17.212Z,100185.13
2022-12-05T20:48:43.945Z,100185.59
2022-12-05T20:51:16.014Z,100181.03
2022-12-05T20:53:43.900Z,100174.34
2022-12-05T20:56:16.092Z,100174.22
2022-12-05T20:58:47.072Z,100175.66
2022-12-05T21:01:15.274Z,100175.66
2022-12-05T21:03:45.319Z,100173.41
2022-12-05T21:06:18.332Z,100168.16
2022-12-05T21:08:45.228Z,100169.81
2022-12-05T21:11:12.616Z,100170.78
2022-12-05T21:13:39.379Z,100168.16
2022-12-05T21:16:08.819Z,100172.44
2022-12-05T21:18:36.579Z,100175.06
2022-12-05T21:21:05.514Z,100173.16
2022-12-05T21:23:32.104Z,100171.00
2022-12-05T21:26:06.996Z,100179.84
2022-12-05T21:28:34.781Z,100179.38
2022-12-05T21:31:13.462Z,100173.88
2022-12-05T21:33:47.669Z,100171.94
2022-12-05T21:36:14.553Z,100174.34
2022-12-05T21:38:40.944Z,100167.75
2022-12-05T21:41:07.673Z,100165.16
2022-12-05T21:43:35.992Z,100164.53
2022-12-05T21:46:02.799Z,100166.22
2022-12-05T21:48:29.261Z,100169.78
2022-12-05T21:50:56.270Z,100158.78
2022-12-05T21:53:22.885Z,100164.53
2022-12-05T21:55:59.149Z,100158.31
2022-12-05T21:58:25.503Z,100160.59
2022-12-05T22:00:51.853Z,100153.03
2022-12-05T22:03:18.221Z,100156.41
2022-12-05T22:05:44.713Z,100156.75
2022-12-05T22:08:11.445Z,100161.22
2022-12-05T22:10:37.971Z,100151.84
2022-12-05T22:13:04.978Z,100165.97
2022-12-05T22:15:31.493Z,100158.31
2022-12-05T22:17:57.908Z,100159.72
2022-12-05T22:20:24.502Z,100158.53
2022-12-05T22:22:50.893Z,100156.63
2022-12-05T22:25:17.243Z,100161.91
2022-12-05T22:27:43.628Z,100165.22
2022-12-05T22:30:10.289Z,100164.75
2022-12-05T22:32:36.711Z,100157.81
2022-12-05T22:35:04.234Z,100155.94
2022-12-05T22:37:31.081Z,100150.69
2022-12-05T22:39:57.873Z,100148.03
2022-12-05T22:42:26.783Z,100155.94
2022-12-05T22:44:53.391Z,100139.66
2022-12-05T22:47:19.753Z,100132.75
2022-12-05T22:49:46.113Z,100147.53
2022-12-05T22:52:12.452Z,100139.75
2022-12-05T22:54:39.138Z,100133.44
2022-12-05T22:57:05.506Z,100129.84
2022-12-05T22:59:31.904Z,100134.16
2022-12-05T23:01:58.335Z,100129.13
2022-12-05T23:04:24.944Z,100132.13
2022-12-05T23:06:51.449Z,100125.78
2022-12-05T23:09:17.975Z,100126.53
2022-12-05T23:11:44.340Z,100116.56
2022-12-05T23:14:13.517Z,100112.53
2022-12-05T23:16:40.145Z,100111.81
2022-12-05T23:19:08.173Z,100118.84
2022-12-05T23:21:37.411Z,100113.59
2022-12-05T23:24:06.608Z,100113.59
2022-12-05T23:26:39.932Z,100099.97
2022-12-05T23:29:06.573Z,100099.03
2022-12-05T23:31:33.939Z,100091.00
2022-12-05T23:34:03.652Z,100085.50
2022-12-05T23:36:31.697Z,100084.94
2022-12-05T23:38:58.132Z,100078.44
2022-12-05T23:41:25.917Z,100089.34
2022-12-05T23:43:53.471Z,100071.28
2022-12-05T23:46:24.094Z,100082.41
2022-12-05T23:48:50.987Z,100078.09
2022-12-05T23:51:24.426Z,100082.28
2022-12-05T23:53:56.913Z,100083.94
2022-12-05T23:56:26.065Z,100089.44
2022-12-05T23:58:54.192Z,100088.84
